Hlavní strana
METAR-TAF:

METAR-TAF

Letiště :

Kuusamo, Finsko

zeměpisná šířka: 65-58N, zeměpisná délka: 029-11E, výška: 262 m

Aktuální stav počasí

Zpráva byla vytvořena před 27 minutami, v 13:50 UTC
Jižní vítr 5 kt
Teplota 0°C
Vlhkost vzduchu 100%
Tlak 994 hPa
Viditelnost: 4100 m
Zataženo ve výšce 300 ft
slabé sněžení

METAR: EFKS 181350Z AUTO 17005KT 4100 -SN OVC003 M00/M00 Q0994

Čas: 16:17 (14:17 UTC)

Předpověď počasí

Zpráva byla vytvořena před 2 hodinami a 42 minutami, v 11:35 UTC
Předpověď platná od 18 v 12 UTC do 18 v 21 UTC
Východojihovýchodní vítr 10 kt
Viditelnost: 3000 m
Zataženo ve výšce 400 ft
slabé sněžení
Dočasný
od 18 v 12 UTC do 18 v 15 UTC
Viditelnost: 1000 m
sníh
Pravděpodobnost 30%
od 18 v 12 UTC do 18 v 15 UTC
(slabý) mrznoucí, mrholení
Dočasný
od 18 v 15 UTC do 18 v 21 UTC
Viditelnost: 1000 m
Oblačno až skoro zataženo ve výšce 100 ft
kouřmo

TAF: EFKS 181135Z 1812/1821 12010KT 3000 -SN OVC004 TEMPO 1812/1815 1000 SN PROB30 1812/1815 -FZDZ TEMPO 1815/1821 1000 BR BKN001

Stav a předpovědi počasí z více než 4 000 letišť (zprávy METAR a TAF).

Červené a žluté tečky na mapě představují dostupné meteorologické stanice.

Když kurzor umístíte na tečku, zobrazí se název stanice.

Pak kliknutím zobrazíte stav a předpověď počasí.

Chcete-li změnit mapu, kliknutím na zelené tlačítko se znaménkem +mapu přiblížíte, kliknutím na zelené tlačítko se znaménkem – mapu oddálíte a kliknutím na zelené šipky přejdete na sousední mapy.


METAR-TAF: